sensor_id;sensor_type;location;lat;lon;timestamp;temperature;humidity
3156;DHT22;1588;50.892;7.082;2022-11-20T00:04:34;3.40;99.90
3156;DHT22;1588;50.892;7.082;2022-11-20T00:09:36;3.30;99.90
3156;DHT22;1588;50.892;7.082;2022-11-20T00:14:39;3.30;99.90
3156;DHT22;1588;50.892;7.082;2022-11-20T00:19:46;3.30;99.90
3156;DHT22;1588;50.892;7.082;2022-11-20T00:24:48;3.30;99.90
3156;DHT22;1588;50.892;7.082;2022-11-20T00:29:50;3.30;99.90
3156;DHT22;1588;50.892;7.082;2022-11-20T00:34:57;3.30;99.90
3156;DHT22;1588;50.892;7.082;2022-11-20T00:40:05;3.30;99.90
3156;DHT22;1588;50.892;7.082;2022-11-20T00:45:08;3.50;99.90
3156;DHT22;1588;50.892;7.082;2022-11-20T00:50:11;3.40;99.90
3156;DHT22;1588;50.892;7.082;2022-11-20T00:55:14;3.30;99.90
3156;DHT22;1588;50.892;7.082;2022-11-20T01:00:16;3.30;99.90
3156;DHT22;1588;50.892;7.082;2022-11-20T01:05:26;3.20;99.90
3156;DHT22;1588;50.892;7.082;2022-11-20T01:10:50;3.30;99.90
3156;DHT22;1588;50.892;7.082;2022-11-20T01:16:06;3.20;99.90
3156;DHT22;1588;50.892;7.082;2022-11-20T01:21:35;3.30;99.90
3156;DHT22;1588;50.892;7.082;2022-11-20T01:26:39;3.40;99.90
3156;DHT22;1588;50.892;7.082;2022-11-20T01:31:45;3.30;99.90
3156;DHT22;1588;50.892;7.082;2022-11-20T01:36:50;3.40;99.90
3156;DHT22;1588;50.892;7.082;2022-11-20T01:42:05;3.40;99.90
3156;DHT22;1588;50.892;7.082;2022-11-20T01:47:29;3.30;99.90
3156;DHT22;1588;50.892;7.082;2022-11-20T01:52:37;3.30;99.90
3156;DHT22;1588;50.892;7.082;2022-11-20T01:58:00;3.20;99.90
3156;DHT22;1588;50.892;7.082;2022-11-20T02:03:08;3.20;99.90
3156;DHT22;1588;50.892;7.082;2022-11-20T02:08:13;3.20;99.90
3156;DHT22;1588;50.892;7.082;2022-11-20T02:13:16;3.20;99.90
3156;DHT22;1588;50.892;7.082;2022-11-20T02:18:37;3.30;99.90
3156;DHT22;1588;50.892;7.082;2022-11-20T02:23:58;3.20;99.90
3156;DHT22;1588;50.892;7.082;2022-11-20T02:29:10;3.20;99.90
3156;DHT22;1588;50.892;7.082;2022-11-20T02:34:12;3.00;99.90
3156;DHT22;1588;50.892;7.082;2022-11-20T02:39:16;3.00;99.90
3156;DHT22;1588;50.892;7.082;2022-11-20T02:44:18;3.10;99.90
3156;DHT22;1588;50.892;7.082;2022-11-20T02:49:21;3.10;99.90
3156;DHT22;1588;50.892;7.082;2022-11-20T02:54:25;3.10;99.90
3156;DHT22;1588;50.892;7.082;2022-11-20T02:59:30;3.10;99.90
3156;DHT22;1588;50.892;7.082;2022-11-20T03:04:36;3.10;99.90
3156;DHT22;1588;50.892;7.082;2022-11-20T03:09:40;3.10;99.90
3156;DHT22;1588;50.892;7.082;2022-11-20T03:14:42;3.10;99.90
3156;DHT22;1588;50.892;7.082;2022-11-20T03:19:44;3.20;99.90
3156;DHT22;1588;50.892;7.082;2022-11-20T03:24:48;3.20;99.90
3156;DHT22;1588;50.892;7.082;2022-11-20T03:29:53;3.20;99.90
3156;DHT22;1588;50.892;7.082;2022-11-20T03:34:55;3.30;99.90
3156;DHT22;1588;50.892;7.082;2022-11-20T03:39:59;3.30;99.90
3156;DHT22;1588;50.892;7.082;2022-11-20T03:45:10;3.30;99.90
3156;DHT22;1588;50.892;7.082;2022-11-20T03:50:15;3.40;99.90
3156;DHT22;1588;50.892;7.082;2022-11-20T03:55:19;3.40;99.90
3156;DHT22;1588;50.892;7.082;2022-11-20T04:00:22;3.40;99.90
3156;DHT22;1588;50.892;7.082;2022-11-20T04:05:26;3.40;99.90
3156;DHT22;1588;50.892;7.082;2022-11-20T04:10:33;3.30;99.90
3156;DHT22;1588;50.892;7.082;2022-11-20T04:15:36;3.30;99.90
3156;DHT22;1588;50.892;7.082;2022-11-20T04:20:39;3.20;99.90
3156;DHT22;1588;50.892;7.082;2022-11-20T04:25:43;3.20;99.90
3156;DHT22;1588;50.892;7.082;2022-11-20T04:30:46;3.20;99.90
3156;DHT22;1588;50.892;7.082;2022-11-20T04:35:49;3.20;99.90
3156;DHT22;1588;50.892;7.082;2022-11-20T04:40:56;3.30;99.90
3156;DHT22;1588;50.892;7.082;2022-11-20T04:46:00;3.20;99.90
3156;DHT22;1588;50.892;7.082;2022-11-20T04:51:03;3.10;99.90
3156;DHT22;1588;50.892;7.082;2022-11-20T04:56:12;3.20;99.90
3156;DHT22;1588;50.892;7.082;2022-11-20T05:01:16;3.00;99.90
3156;DHT22;1588;50.892;7.082;2022-11-20T05:06:21;3.00;99.90
3156;DHT22;1588;50.892;7.082;2022-11-20T05:11:25;3.00;99.90
3156;DHT22;1588;50.892;7.082;2022-11-20T05:16:30;3.00;99.90
3156;DHT22;1588;50.892;7.082;2022-11-20T05:21:32;3.00;99.90
3156;DHT22;1588;50.892;7.082;2022-11-20T05:26:36;3.10;99.90
3156;DHT22;1588;50.892;7.082;2022-11-20T05:31:39;3.00;99.90
3156;DHT22;1588;50.892;7.082;2022-11-20T05:36:42;3.00;99.90
3156;DHT22;1588;50.892;7.082;2022-11-20T05:41:46;3.00;99.90
3156;DHT22;1588;50.892;7.082;2022-11-20T05:47:09;3.10;99.90
3156;DHT22;1588;50.892;7.082;2022-11-20T05:52:11;3.00;99.90
3156;DHT22;1588;50.892;7.082;2022-11-20T05:57:35;3.20;99.90
3156;DHT22;1588;50.892;7.082;2022-11-20T06:02:39;3.10;99.90
3156;DHT22;1588;50.892;7.082;2022-11-20T06:07:42;3.20;99.90
3156;DHT22;1588;50.892;7.082;2022-11-20T06:12:46;3.10;99.90
3156;DHT22;1588;50.892;7.082;2022-11-20T06:17:51;3.10;99.90
3156;DHT22;1588;50.892;7.082;2022-11-20T06:23:04;3.10;99.90
3156;DHT22;1588;50.892;7.082;2022-11-20T06:28:07;3.10;99.90
3156;DHT22;1588;50.892;7.082;2022-11-20T06:33:12;3.00;99.90
3156;DHT22;1588;50.892;7.082;2022-11-20T06:38:15;3.10;99.90
3156;DHT22;1588;50.892;7.082;2022-11-20T06:43:21;3.00;99.90
3156;DHT22;1588;50.892;7.082;2022-11-20T06:48:25;3.00;99.90
3156;DHT22;1588;50.892;7.082;2022-11-20T06:53:31;2.90;99.90
3156;DHT22;1588;50.892;7.082;2022-11-20T06:58:35;3.00;99.90
3156;DHT22;1588;50.892;7.082;2022-11-20T07:03:40;3.10;99.90
3156;DHT22;1588;50.892;7.082;2022-11-20T07:08:43;3.10;99.90
3156;DHT22;1588;50.892;7.082;2022-11-20T07:13:47;3.10;99.90
3156;DHT22;1588;50.892;7.082;2022-11-20T07:18:58;3.10;99.90
3156;DHT22;1588;50.892;7.082;2022-11-20T07:24:01;3.20;99.90
3156;DHT22;1588;50.892;7.082;2022-11-20T07:29:05;3.40;99.90
3156;DHT22;1588;50.892;7.082;2022-11-20T07:34:07;3.30;99.90
3156;DHT22;1588;50.892;7.082;2022-11-20T07:39:10;3.50;99.90
3156;DHT22;1588;50.892;7.082;2022-11-20T07:44:14;3.50;99.90
3156;DHT22;1588;50.892;7.082;2022-11-20T07:49:16;3.50;99.90
3156;DHT22;1588;50.892;7.082;2022-11-20T07:54:21;3.60;99.90
3156;DHT22;1588;50.892;7.082;2022-11-20T07:59:26;3.70;99.90
3156;DHT22;1588;50.892;7.082;2022-11-20T08:04:28;3.60;99.90
3156;DHT22;1588;50.892;7.082;2022-11-20T08:09:31;3.80;99.90
3156;DHT22;1588;50.892;7.082;2022-11-20T08:14:35;3.90;99.90
3156;DHT22;1588;50.892;7.082;2022-11-20T08:19:37;3.90;99.90
3156;DHT22;1588;50.892;7.082;2022-11-20T08:24:40;3.90;99.90
3156;DHT22;1588;50.892;7.082;2022-11-20T08:29:44;4.00;99.90
3156;DHT22;1588;50.892;7.082;2022-11-20T08:34:55;4.10;99.90
3156;DHT22;1588;50.892;7.082;2022-11-20T08:39:57;4.10;99.90
3156;DHT22;1588;50.892;7.082;2022-11-20T08:45:06;4.10;99.90
3156;DHT22;1588;50.892;7.082;2022-11-20T08:50:09;4.20;99.90
3156;DHT22;1588;50.892;7.082;2022-11-20T08:55:12;4.20;99.90
3156;DHT22;1588;50.892;7.082;2022-11-20T09:00:16;4.30;99.90
3156;DHT22;1588;50.892;7.082;2022-11-20T09:05:19;4.40;99.90
3156;DHT22;1588;50.892;7.082;2022-11-20T09:10:21;4.50;99.90
3156;DHT22;1588;50.892;7.082;2022-11-20T09:15:26;4.40;99.90
3156;DHT22;1588;50.892;7.082;2022-11-20T09:20:29;4.60;99.90
3156;DHT22;1588;50.892;7.082;2022-11-20T09:25:38;4.70;99.90
3156;DHT22;1588;50.892;7.082;2022-11-20T09:30:44;4.60;99.90
3156;DHT22;1588;50.892;7.082;2022-11-20T09:35:53;4.70;99.90
3156;DHT22;1588;50.892;7.082;2022-11-20T09:41:01;4.70;99.90
3156;DHT22;1588;50.892;7.082;2022-11-20T09:46:20;4.80;99.90
3156;DHT22;1588;50.892;7.082;2022-11-20T09:51:34;4.80;99.90
3156;DHT22;1588;50.892;7.082;2022-11-20T09:56:41;5.00;99.90
3156;DHT22;1588;50.892;7.082;2022-11-20T10:01:46;5.20;99.90
3156;DHT22;1588;50.892;7.082;2022-11-20T10:07:00;5.20;99.90
3156;DHT22;1588;50.892;7.082;2022-11-20T10:12:12;5.10;99.90
3156;DHT22;1588;50.892;7.082;2022-11-20T10:17:33;5.10;99.90
3156;DHT22;1588;50.892;7.082;2022-11-20T10:22:54;5.10;99.90
3156;DHT22;1588;50.892;7.082;2022-11-20T10:33:34;5.10;99.90
3156;DHT22;1588;50.892;7.082;2022-11-20T10:38:49;5.20;99.90
3156;DHT22;1588;50.892;7.082;2022-11-20T10:44:02;5.30;99.90
3156;DHT22;1588;50.892;7.082;2022-11-20T10:49:13;5.30;99.90
3156;DHT22;1588;50.892;7.082;2022-11-20T10:54:22;5.30;99.90
3156;DHT22;1588;50.892;7.082;2022-11-20T10:59:36;5.40;99.90
3156;DHT22;1588;50.892;7.082;2022-11-20T11:04:44;5.40;99.90
3156;DHT22;1588;50.892;7.082;2022-11-20T11:09:49;5.30;99.90
3156;DHT22;1588;50.892;7.082;2022-11-20T11:14:56;5.20;99.90
3156;DHT22;1588;50.892;7.082;2022-11-20T11:20:04;5.30;99.90
3156;DHT22;1588;50.892;7.082;2022-11-20T11:25:22;5.20;99.90
3156;DHT22;1588;50.892;7.082;2022-11-20T11:30:28;5.30;99.90
3156;DHT22;1588;50.892;7.082;2022-11-20T11:35:44;5.40;99.90
3156;DHT22;1588;50.892;7.082;2022-11-20T11:40:47;5.50;99.90
3156;DHT22;1588;50.892;7.082;2022-11-20T11:45:52;5.60;99.90
3156;DHT22;1588;50.892;7.082;2022-11-20T11:50:57;5.60;99.90
3156;DHT22;1588;50.892;7.082;2022-11-20T11:56:07;5.60;99.90
3156;DHT22;1588;50.892;7.082;2022-11-20T12:01:20;5.70;99.90
3156;DHT22;1588;50.892;7.082;2022-11-20T12:06:30;5.70;99.90
3156;DHT22;1588;50.892;7.082;2022-11-20T12:11:37;5.70;99.90
3156;DHT22;1588;50.892;7.082;2022-11-20T12:16:43;5.70;99.90
3156;DHT22;1588;50.892;7.082;2022-11-20T12:21:56;5.80;99.90
3156;DHT22;1588;50.892;7.082;2022-11-20T12:27:23;5.70;99.90
3156;DHT22;1588;50.892;7.082;2022-11-20T12:38:11;5.60;99.90
3156;DHT22;1588;50.892;7.082;2022-11-20T12:43:19;5.60;99.90
3156;DHT22;1588;50.892;7.082;2022-11-20T12:49:19;5.80;99.90
3156;DHT22;1588;50.892;7.082;2022-11-20T12:54:46;6.00;99.90
3156;DHT22;1588;50.892;7.082;2022-11-20T13:00:14;6.20;99.90
3156;DHT22;1588;50.892;7.082;2022-11-20T13:05:26;6.10;99.90
3156;DHT22;1588;50.892;7.082;2022-11-20T13:10:45;6.10;99.90
3156;DHT22;1588;50.892;7.082;2022-11-20T13:16:01;6.10;99.90
3156;DHT22;1588;50.892;7.082;2022-11-20T13:21:17;6.20;99.90
3156;DHT22;1588;50.892;7.082;2022-11-20T13:26:23;6.20;99.90
3156;DHT22;1588;50.892;7.082;2022-11-20T13:31:31;6.20;99.90
3156;DHT22;1588;50.892;7.082;2022-11-20T13:36:47;6.30;99.90
3156;DHT22;1588;50.892;7.082;2022-11-20T13:41:57;6.40;99.90
3156;DHT22;1588;50.892;7.082;2022-11-20T13:47:22;6.50;99.90
3156;DHT22;1588;50.892;7.082;2022-11-20T13:52:47;6.40;99.90
3156;DHT22;1588;50.892;7.082;2022-11-20T14:03:58;6.40;99.90
3156;DHT22;1588;50.892;7.082;2022-11-20T14:09:02;6.50;99.90
3156;DHT22;1588;50.892;7.082;2022-11-20T14:14:15;6.40;99.90
3156;DHT22;1588;50.892;7.082;2022-11-20T14:19:38;6.50;99.90
3156;DHT22;1588;50.892;7.082;2022-11-20T14:25:06;6.40;99.90
3156;DHT22;1588;50.892;7.082;2022-11-20T14:43:33;6.50;99.90
3156;DHT22;1588;50.892;7.082;2022-11-20T14:48:54;6.40;99.90
3156;DHT22;1588;50.892;7.082;2022-11-20T14:54:12;6.50;99.90
3156;DHT22;1588;50.892;7.082;2022-11-20T15:18:40;6.40;99.90
3156;DHT22;1588;50.892;7.082;2022-11-20T15:23:44;6.40;99.90
3156;DHT22;1588;50.892;7.082;2022-11-20T15:28:48;6.50;99.90
3156;DHT22;1588;50.892;7.082;2022-11-20T15:33:53;6.40;99.90
3156;DHT22;1588;50.892;7.082;2022-11-20T15:38:55;6.40;99.90
3156;DHT22;1588;50.892;7.082;2022-11-20T15:43:59;6.40;99.90
3156;DHT22;1588;50.892;7.082;2022-11-20T15:49:03;6.30;99.90
3156;DHT22;1588;50.892;7.082;2022-11-20T15:54:11;6.30;99.90
3156;DHT22;1588;50.892;7.082;2022-11-20T15:59:16;6.30;99.90
3156;DHT22;1588;50.892;7.082;2022-11-20T16:04:20;6.30;99.90
3156;DHT22;1588;50.892;7.082;2022-11-20T16:09:23;6.30;99.90
3156;DHT22;1588;50.892;7.082;2022-11-20T16:14:25;6.40;99.90
3156;DHT22;1588;50.892;7.082;2022-11-20T16:19:46;6.40;99.90
3156;DHT22;1588;50.892;7.082;2022-11-20T16:24:49;6.40;99.90
3156;DHT22;1588;50.892;7.082;2022-11-20T16:29:53;6.40;99.90
3156;DHT22;1588;50.892;7.082;2022-11-20T16:34:57;6.30;99.90
3156;DHT22;1588;50.892;7.082;2022-11-20T16:39:59;6.40;99.90
3156;DHT22;1588;50.892;7.082;2022-11-20T16:45:02;6.40;99.90
3156;DHT22;1588;50.892;7.082;2022-11-20T16:50:17;6.40;99.90
3156;DHT22;1588;50.892;7.082;2022-11-20T16:55:29;6.40;99.90
3156;DHT22;1588;50.892;7.082;2022-11-20T17:00:42;6.30;99.90
3156;DHT22;1588;50.892;7.082;2022-11-20T17:05:47;6.40;99.90
3156;DHT22;1588;50.892;7.082;2022-11-20T17:10:49;6.30;99.90
3156;DHT22;1588;50.892;7.082;2022-11-20T17:15:52;6.40;99.90
3156;DHT22;1588;50.892;7.082;2022-11-20T17:20:57;6.40;99.90
3156;DHT22;1588;50.892;7.082;2022-11-20T17:26:09;6.40;99.90
3156;DHT22;1588;50.892;7.082;2022-11-20T17:31:48;6.40;99.90
3156;DHT22;1588;50.892;7.082;2022-11-20T17:44:14;6.40;99.90
3156;DHT22;1588;50.892;7.082;2022-11-20T17:49:37;6.40;99.90
3156;DHT22;1588;50.892;7.082;2022-11-20T17:54:39;6.30;99.90
3156;DHT22;1588;50.892;7.082;2022-11-20T17:59:48;6.30;99.90
3156;DHT22;1588;50.892;7.082;2022-11-20T18:04:54;6.40;99.90
3156;DHT22;1588;50.892;7.082;2022-11-20T18:09:56;6.40;99.90
3156;DHT22;1588;50.892;7.082;2022-11-20T18:15:03;6.40;99.90
3156;DHT22;1588;50.892;7.082;2022-11-20T18:20:15;6.40;99.90
3156;DHT22;1588;50.892;7.082;2022-11-20T18:25:20;6.40;99.90
3156;DHT22;1588;50.892;7.082;2022-11-20T18:30:24;6.40;99.90
3156;DHT22;1588;50.892;7.082;2022-11-20T18:35:27;6.40;99.90
3156;DHT22;1588;50.892;7.082;2022-11-20T18:40:29;6.40;99.90
3156;DHT22;1588;50.892;7.082;2022-11-20T18:45:33;6.40;99.90
3156;DHT22;1588;50.892;7.082;2022-11-20T18:50:39;6.50;99.90
3156;DHT22;1588;50.892;7.082;2022-11-20T18:55:42;6.50;99.90
3156;DHT22;1588;50.892;7.082;2022-11-20T19:00:46;6.50;99.90
3156;DHT22;1588;50.892;7.082;2022-11-20T19:11:23;6.60;99.90
3156;DHT22;1588;50.892;7.082;2022-11-20T19:16:27;6.60;99.90
3156;DHT22;1588;50.892;7.082;2022-11-20T19:21:30;6.70;99.90
3156;DHT22;1588;50.892;7.082;2022-11-20T19:26:46;6.70;99.90
3156;DHT22;1588;50.892;7.082;2022-11-20T19:37:33;7.10;99.90
3156;DHT22;1588;50.892;7.082;2022-11-20T19:42:42;7.10;99.90
3156;DHT22;1588;50.892;7.082;2022-11-20T19:48:17;7.20;99.90
3156;DHT22;1588;50.892;7.082;2022-11-20T19:53:34;7.20;99.90
3156;DHT22;1588;50.892;7.082;2022-11-20T19:58:37;7.30;99.90
3156;DHT22;1588;50.892;7.082;2022-11-20T20:03:41;7.30;99.90
3156;DHT22;1588;50.892;7.082;2022-11-20T20:08:52;7.40;99.90
3156;DHT22;1588;50.892;7.082;2022-11-20T20:13:59;7.40;99.90
3156;DHT22;1588;50.892;7.082;2022-11-20T20:19:16;7.40;99.90
3156;DHT22;1588;50.892;7.082;2022-11-20T20:24:42;7.50;99.90
3156;DHT22;1588;50.892;7.082;2022-11-20T20:30:16;7.40;99.90
3156;DHT22;1588;50.892;7.082;2022-11-20T20:35:23;7.40;99.90
3156;DHT22;1588;50.892;7.082;2022-11-20T20:40:36;7.50;99.90
3156;DHT22;1588;50.892;7.082;2022-11-20T20:45:46;7.60;99.90
3156;DHT22;1588;50.892;7.082;2022-11-20T20:51:00;7.70;99.90
3156;DHT22;1588;50.892;7.082;2022-11-20T20:56:03;7.80;99.90
3156;DHT22;1588;50.892;7.082;2022-11-20T21:01:08;7.80;99.90
3156;DHT22;1588;50.892;7.082;2022-11-20T21:06:21;7.80;99.90
3156;DHT22;1588;50.892;7.082;2022-11-20T21:11:29;7.90;99.90
3156;DHT22;1588;50.892;7.082;2022-11-20T21:16:35;7.90;99.90
3156;DHT22;1588;50.892;7.082;2022-11-20T21:21:47;7.90;99.90
3156;DHT22;1588;50.892;7.082;2022-11-20T21:27:07;7.90;99.90
3156;DHT22;1588;50.892;7.082;2022-11-20T21:32:13;7.90;99.90
3156;DHT22;1588;50.892;7.082;2022-11-20T21:37:26;7.80;99.90
3156;DHT22;1588;50.892;7.082;2022-11-20T21:42:29;7.90;99.90
3156;DHT22;1588;50.892;7.082;2022-11-20T21:47:31;7.80;99.90
3156;DHT22;1588;50.892;7.082;2022-11-20T21:52:36;7.80;99.90
3156;DHT22;1588;50.892;7.082;2022-11-20T21:57:38;7.80;99.90
3156;DHT22;1588;50.892;7.082;2022-11-20T22:02:44;7.80;99.90
3156;DHT22;1588;50.892;7.082;2022-11-20T22:07:49;7.90;99.90
3156;DHT22;1588;50.892;7.082;2022-11-20T22:12:52;7.90;99.90
3156;DHT22;1588;50.892;7.082;2022-11-20T22:18:18;7.80;99.90
3156;DHT22;1588;50.892;7.082;2022-11-20T22:23:24;7.80;99.90
3156;DHT22;1588;50.892;7.082;2022-11-20T22:28:28;7.70;99.90
3156;DHT22;1588;50.892;7.082;2022-11-20T22:33:34;7.60;99.90
3156;DHT22;1588;50.892;7.082;2022-11-20T22:38:46;7.50;99.90
3156;DHT22;1588;50.892;7.082;2022-11-20T22:43:56;7.50;99.90
3156;DHT22;1588;50.892;7.082;2022-11-20T22:49:11;7.50;99.90
3156;DHT22;1588;50.892;7.082;2022-11-20T22:54:18;7.50;99.90
3156;DHT22;1588;50.892;7.082;2022-11-20T22:59:22;7.40;99.90
3156;DHT22;1588;50.892;7.082;2022-11-20T23:04:34;7.40;99.90
3156;DHT22;1588;50.892;7.082;2022-11-20T23:09:38;7.30;99.90
3156;DHT22;1588;50.892;7.082;2022-11-20T23:14:43;7.30;99.90
3156;DHT22;1588;50.892;7.082;2022-11-20T23:19:48;7.30;99.90
3156;DHT22;1588;50.892;7.082;2022-11-20T23:24:54;7.30;99.90
3156;DHT22;1588;50.892;7.082;2022-11-20T23:29:57;7.30;99.90
3156;DHT22;1588;50.892;7.082;2022-11-20T23:35:02;7.30;99.90
3156;DHT22;1588;50.892;7.082;2022-11-20T23:40:07;7.30;99.90
3156;DHT22;1588;50.892;7.082;2022-11-20T23:45:10;7.30;99.90
3156;DHT22;1588;50.892;7.082;2022-11-20T23:50:15;7.20;99.90
3156;DHT22;1588;50.892;7.082;2022-11-20T23:55:19;7.20;99.90
